Time,TemperatureF,DewpointF,PressureIn,WindDirection,WindDirectionDegrees,WindSpeedMPH,WindSpeedGustMPH,Humidity,HourlyPrecipIn,Conditions,Clouds,dailyrainin,SoftwareType,DateUTC
2013-06-29 03:22:00,81.0,22.0,-100.00,WNW,288,7.0,10.0,11,-99.99,,,-99.99,,2013-06-29 10:22:00,
2013-06-29 03:42:00,81.0,24.0,-100.00,West,263,8.0,18.0,12,-99.99,,,-99.99,,2013-06-29 10:42:00,
2013-06-29 04:11:00,80.0,23.0,-100.00,WSW,252,4.0,12.0,12,-99.99,,,-99.99,,2013-06-29 11:11:00,
2013-06-29 04:23:00,81.0,24.0,-100.00,WSW,253,4.0,13.0,12,-99.99,,,-99.99,,2013-06-29 11:23:00,
2013-06-29 04:43:00,81.0,24.0,-100.00,NW,311,3.0,11.0,12,-99.99,,,-99.99,,2013-06-29 11:43:00,
2013-06-29 05:11:00,81.0,24.0,-100.00,WNW,290,1.0,5.0,12,-99.99,,,-99.99,,2013-06-29 12:11:00,
2013-06-29 05:22:00,81.0,24.0,-100.00,North,354,3.0,6.0,12,-99.99,,,-99.99,,2013-06-29 12:22:00,
2013-06-29 06:34:00,83.0,25.0,-100.00,WNW,290,2.0,6.0,12,-99.99,,,-99.99,,2013-06-29 13:34:00,
2013-06-29 07:12:00,83.0,25.0,-100.00,NNE,21,3.0,6.0,12,-99.99,,,-99.99,,2013-06-29 14:12:00,
2013-06-29 07:23:00,83.0,25.0,-100.00,NNE,21,3.0,6.0,12,-99.99,,,-99.99,,2013-06-29 14:23:00,
2013-06-29 08:21:00,84.0,28.0,-100.00,WNW,282,3.0,7.0,13,-99.99,,,-99.99,,2013-06-29 15:21:00,
2013-06-29 09:12:00,87.0,30.0,-100.00,WNW,287,7.0,11.0,13,-99.99,,,-99.99,,2013-06-29 16:12:00,
2013-06-29 09:22:00,87.0,30.0,-100.00,WNW,287,7.0,11.0,13,-99.99,,,-99.99,,2013-06-29 16:22:00,
2013-06-29 09:33:00,88.0,33.0,-100.00,North,360,1.0,4.0,14,-99.99,,,-99.99,,2013-06-29 16:33:00,
2013-06-29 10:11:00,88.0,33.0,-100.00,NW,306,10.0,15.0,14,-99.99,,,-99.99,,2013-06-29 17:11:00,
2013-06-29 10:22:00,89.0,34.0,-100.00,WNW,288,7.0,10.0,14,-99.99,,,-99.99,,2013-06-29 17:22:00,
2013-06-29 10:33:00,90.0,34.0,-100.00,West,266,8.0,12.0,14,-99.99,,,-99.99,,2013-06-29 17:33:00,
2013-06-29 10:42:00,91.0,33.0,-100.00,West,277,8.0,14.0,13,-99.99,,,-99.99,,2013-06-29 17:42:00,
2013-06-29 11:11:00,91.0,33.0,-100.00,West,280,9.0,14.0,13,-99.99,,,-99.99,,2013-06-29 18:11:00,
2013-06-29 11:22:00,91.0,33.0,-100.00,West,276,9.0,12.0,13,-99.99,,,-99.99,,2013-06-29 18:22:00,
2013-06-29 11:43:00,93.0,33.0,-100.00,WNW,283,7.0,15.0,12,-99.99,,,-99.99,,2013-06-29 18:43:00,
2013-06-29 12:22:00,93.0,33.0,-100.00,West,271,9.0,15.0,12,-99.99,,,-99.99,,2013-06-29 19:22:00,
2013-06-29 12:43:00,94.0,31.0,-100.00,WSW,246,9.0,15.0,11,-99.99,,,-99.99,,2013-06-29 19:43:00,
2013-06-29 13:11:00,96.0,33.0,-100.00,West,264,12.0,19.0,11,-99.99,,,-99.99,,2013-06-29 20:11:00,
2013-06-29 13:22:00,95.0,32.0,-100.00,WSW,258,12.0,19.0,11,-99.99,,,-99.99,,2013-06-29 20:22:00,
2013-06-29 13:33:00,97.0,34.0,-100.00,West,271,11.0,22.0,11,-99.99,,,-99.99,,2013-06-29 20:33:00,
2013-06-29 13:43:00,96.0,33.0,-100.00,WSW,258,13.0,19.0,11,-99.99,,,-99.99,,2013-06-29 20:43:00,
2013-06-29 13:52:00,96.0,33.0,-100.00,West,276,10.0,17.0,11,-99.99,,,-99.99,,2013-06-29 20:52:00,
2013-06-29 14:01:00,96.0,33.0,-100.00,West,276,11.0,17.0,11,-99.99,,,-99.99,,2013-06-29 21:01:00,
2013-06-29 14:11:00,96.0,33.0,-100.00,WNW,288,12.0,18.0,11,-99.99,,,-99.99,,2013-06-29 21:11:00,
2013-06-29 14:22:00,95.0,34.0,-100.00,WNW,292,12.0,18.0,12,-99.99,,,-99.99,,2013-06-29 21:22:00,
2013-06-29 15:11:00,94.0,34.0,-100.00,WNW,284,13.0,18.0,12,-99.99,,,-99.99,,2013-06-29 22:11:00,
2013-06-29 16:12:00,95.0,34.0,-100.00,WNW,282,11.0,18.0,12,-99.99,,,-99.99,,2013-06-29 23:12:00,
2013-06-29 16:23:00,95.0,34.0,-100.00,WNW,282,11.0,18.0,12,-99.99,,,-99.99,,2013-06-29 23:23:00,
2013-06-29 16:33:00,95.0,34.0,-100.00,West,279,10.0,19.0,12,-99.99,,,-99.99,,2013-06-29 23:33:00,
2013-06-29 17:01:00,94.0,38.0,-100.00,WSW,257,11.0,15.0,14,-99.99,,,-99.99,,2013-06-30 00:01:00,
2013-06-29 17:11:00,94.0,38.0,-100.00,WSW,253,10.0,16.0,14,-99.99,,,-99.99,,2013-06-30 00:11:00,
2013-06-29 17:52:00,91.0,37.0,-100.00,WSW,257,9.0,13.0,15,-99.99,,,-99.99,,2013-06-30 00:52:00,
2013-06-29 18:22:00,91.0,40.0,-100.00,WSW,256,12.0,16.0,17,-99.99,,,-99.99,,2013-06-30 01:22:00,
2013-06-29 18:33:00,89.0,40.0,-100.00,West,260,10.0,17.0,18,-99.99,,,-99.99,,2013-06-30 01:33:00,
2013-06-29 18:43:00,89.0,40.0,-100.00,WNW,287,10.0,16.0,18,-99.99,,,-99.99,,2013-06-30 01:43:00,
2013-06-29 18:53:00,88.0,41.0,-100.00,WNW,282,8.0,14.0,19,-99.99,,,-99.99,,2013-06-30 01:53:00,
2013-06-29 19:11:00,87.0,38.0,-100.00,West,270,7.0,12.0,18,-99.99,,,-99.99,,2013-06-30 02:11:00,
2013-06-29 19:23:00,87.0,40.0,-100.00,West,273,6.0,11.0,19,-99.99,,,-99.99,,2013-06-30 02:23:00,
2013-06-29 19:33:00,86.0,39.0,-100.00,WSW,242,4.0,7.0,19,-99.99,,,-99.99,,2013-06-30 02:33:00,
2013-06-29 19:43:00,86.0,39.0,-100.00,WSW,250,1.0,3.0,19,-99.99,,,-99.99,,2013-06-30 02:43:00,
2013-06-29 19:53:00,86.0,39.0,-100.00,West,274,3.0,6.0,19,-99.99,,,-99.99,,2013-06-30 02:53:00,
2013-06-29 20:22:00,84.0,37.0,-100.00,NW,304,4.0,6.0,19,-99.99,,,-99.99,,2013-06-30 03:22:00,
2013-06-29 21:12:00,84.0,39.0,-100.00,WNW,301,6.0,10.0,20,-99.99,,,-99.99,,2013-06-30 04:12:00,
2013-06-29 21:43:00,84.0,41.0,-100.00,West,280,3.0,9.0,22,-99.99,,,-99.99,,2013-06-30 04:43:00,
2013-06-29 21:52:00,84.0,42.0,-100.00,NW,304,3.0,6.0,23,-99.99,,,-99.99,,2013-06-30 04:52:00,
2013-06-29 22:12:00,82.0,41.0,-100.00,West,278,2.0,6.0,23,-99.99,,,-99.99,,2013-06-30 05:12:00,
2013-06-29 22:22:00,84.0,42.0,-100.00,West,270,4.0,8.0,23,-99.99,,,-99.99,,2013-06-30 05:22:00,
2013-06-29 22:33:00,83.0,41.0,-100.00,SE,131,1.0,3.0,23,-99.99,,,-99.99,,2013-06-30 05:33:00,
2013-06-29 22:43:00,83.0,41.0,-100.00,NNE,31,1.0,2.0,23,-99.99,,,-99.99,,2013-06-30 05:43:00,
2013-06-29 23:12:00,84.0,39.0,-100.00,NW,314,2.0,4.0,20,-99.99,,,-99.99,,2013-06-30 06:12:00,
2013-06-29 23:23:00,83.0,39.0,-100.00,WSW,252,2.0,4.0,21,-99.99,,,-99.99,,2013-06-30 06:23:00,
2013-06-29 23:53:00,84.0,39.0,-100.00,East,94,1.0,2.0,20,-99.99,,,-99.99,,2013-06-30 06:53:00,